Alajuela, Costa Rica
Current Conditions -  °F | °C
As of 7:00 AM on Tuesday 21 Oct 2014 (Local Time) from MROC Reporting Station
Broken Clouds Broken Clouds  
Wind Chill: 70°   Ceiling: 20000
Heat Index: 70°   Visibility: 6mi
Dew Point: 64°   Wind: 3mph
Humidity: 83%   Direction: 40°NE
Pressure: 30.03"   Gusts: NA
Location:  10.5°N, 84.5°W
Report Text: MROC 211300Z 04003KT 9999 FEW025 SCT100 BKN200 21/18 A3003 NOSIG
Loading
Personal Weather Stations






























Interactive Weather Map
Tropical Storm Tracking
New forecast layout! Learn more

10-Day Weather Forecast

Advertisements
Track Severe Weather on mobile